createdAt,value
2018-02-25T00:02:07.336Z,102336.66
2018-02-25T00:04:33.460Z,102341.92
2018-02-25T00:06:59.656Z,102342.58
2018-02-25T00:09:25.833Z,102350.97
2018-02-25T00:11:52.113Z,102351.20
2018-02-25T00:14:18.265Z,102343.69
2018-02-25T00:16:44.507Z,102347.84
2018-02-25T00:19:10.649Z,102348.72
2018-02-25T00:21:36.895Z,102350.56
2018-02-25T00:24:03.141Z,102347.11
2018-02-25T00:26:29.342Z,102340.09
2018-02-25T00:28:55.482Z,102338.24
2018-02-25T00:31:21.662Z,102334.83
2018-02-25T00:33:47.824Z,102336.86
2018-02-25T00:36:14.038Z,102332.77
2018-02-25T00:38:40.202Z,102336.50
2018-02-25T00:41:06.381Z,102332.67
2018-02-25T00:43:32.669Z,102331.66
2018-02-25T00:45:58.923Z,102330.70
2018-02-25T00:48:25.089Z,102330.91
2018-02-25T00:50:51.277Z,102333.33
2018-02-25T00:53:17.481Z,102329.41
2018-02-25T00:55:43.672Z,102328.44
2018-02-25T00:58:09.859Z,102330.60
2018-02-25T01:00:36.064Z,102336.84
2018-02-25T01:03:02.180Z,102337.16
2018-02-25T01:05:28.426Z,102334.66
2018-02-25T01:07:54.586Z,102330.34
2018-02-25T01:10:20.758Z,102342.02
2018-02-25T01:12:46.983Z,102337.55
2018-02-25T01:15:13.189Z,102340.45
2018-02-25T01:17:39.353Z,102342.43
2018-02-25T01:20:05.522Z,102343.34
2018-02-25T01:22:31.733Z,102341.50
2018-02-25T01:24:57.901Z,102343.59
2018-02-25T01:27:24.079Z,102347.73
2018-02-25T01:29:50.232Z,102347.46
2018-02-25T01:32:16.409Z,102345.34
2018-02-25T01:34:42.582Z,102351.66
2018-02-25T01:37:08.795Z,102347.09
2018-02-25T01:39:34.988Z,102349.58
2018-02-25T01:42:01.142Z,102353.95
2018-02-25T01:44:27.397Z,102358.98
2018-02-25T01:46:53.612Z,102367.80
2018-02-25T01:49:19.847Z,102369.14
2018-02-25T01:51:46.047Z,102363.45
2018-02-25T01:54:12.273Z,102367.88
2018-02-25T01:56:38.451Z,102371.42
2018-02-25T01:59:04.601Z,102368.61
2018-02-25T02:01:30.774Z,102366.09
2018-02-25T02:03:57.265Z,102370.39
2018-02-25T02:06:23.515Z,102369.32
2018-02-25T02:08:49.651Z,102373.47
2018-02-25T02:11:15.831Z,102373.42
2018-02-25T02:13:42.033Z,102363.36
2018-02-25T02:16:08.292Z,102366.31
2018-02-25T02:18:34.522Z,102360.55
2018-02-25T02:21:00.700Z,102366.17
2018-02-25T02:23:26.815Z,102369.31
2018-02-25T02:25:53.015Z,102364.93
2018-02-25T02:28:19.177Z,102361.47
2018-02-25T02:30:45.365Z,102362.44
2018-02-25T02:33:11.525Z,102360.31
2018-02-25T02:35:38.595Z,102361.41
2018-02-25T02:38:04.727Z,102367.26
2018-02-25T02:43:06.000Z,102370.67
2018-02-25T02:45:32.466Z,102365.92
2018-02-25T02:47:58.631Z,102372.63
2018-02-25T02:50:24.789Z,102378.13
2018-02-25T02:52:50.985Z,102378.86
2018-02-25T02:55:17.217Z,102376.99
2018-02-25T02:57:43.393Z,102381.65
2018-02-25T03:00:10.365Z,102369.89
2018-02-25T03:02:36.568Z,102377.83
2018-02-25T03:05:02.737Z,102379.25
2018-02-25T03:07:28.954Z,102386.05
2018-02-25T03:09:55.133Z,102383.80
2018-02-25T03:12:21.265Z,102382.92
2018-02-25T03:14:47.428Z,102390.82
2018-02-25T03:17:13.651Z,102388.06
2018-02-25T03:19:39.854Z,102385.98
2018-02-25T03:22:06.039Z,102383.91
2018-02-25T03:24:32.226Z,102387.28
2018-02-25T03:26:58.432Z,102393.48
2018-02-25T03:29:24.617Z,102383.62
2018-02-25T03:31:50.822Z,102388.27
2018-02-25T03:34:17.079Z,102388.55
2018-02-25T03:36:43.302Z,102393.86
2018-02-25T03:39:09.455Z,102396.48
2018-02-25T03:41:35.637Z,102402.96
2018-02-25T03:44:02.765Z,102402.81
2018-02-25T03:46:28.996Z,102410.30
2018-02-25T03:48:55.352Z,102404.13
2018-02-25T03:51:21.497Z,102402.68
2018-02-25T03:53:47.611Z,102403.52
2018-02-25T03:56:13.823Z,102407.94
2018-02-25T03:58:40.041Z,102401.44
2018-02-25T04:01:06.169Z,102413.88
2018-02-25T04:03:32.336Z,102423.87
2018-02-25T04:05:58.497Z,102418.41
2018-02-25T04:08:24.754Z,102422.39
2018-02-25T04:10:50.907Z,102430.08
2018-02-25T04:13:17.020Z,102428.18
2018-02-25T04:15:43.294Z,102433.64
2018-02-25T04:18:09.468Z,102436.17
2018-02-25T04:20:35.680Z,102441.27
2018-02-25T04:23:01.798Z,102431.64
2018-02-25T04:25:27.994Z,102435.61
2018-02-25T04:27:54.172Z,102434.11
2018-02-25T04:30:20.391Z,102433.25
2018-02-25T04:32:46.526Z,102427.11
2018-02-25T04:35:12.720Z,102430.25
2018-02-25T04:37:38.899Z,102433.70
2018-02-25T04:40:05.053Z,102435.98
2018-02-25T04:42:31.192Z,102440.81
2018-02-25T04:44:58.308Z,102436.23
2018-02-25T04:47:24.519Z,102437.98
2018-02-25T04:49:51.220Z,102440.51
2018-02-25T04:52:17.411Z,102444.19
2018-02-25T04:54:43.544Z,102448.46
2018-02-25T04:57:09.728Z,102443.30
2018-02-25T04:59:35.924Z,102453.00
2018-02-25T05:02:02.096Z,102449.48
2018-02-25T05:04:28.271Z,102454.23
2018-02-25T05:06:54.512Z,102449.44
2018-02-25T05:09:20.679Z,102448.77
2018-02-25T05:11:46.836Z,102453.67
2018-02-25T05:14:12.992Z,102456.96
2018-02-25T05:16:39.255Z,102453.77
2018-02-25T05:19:05.411Z,102451.14
2018-02-25T05:21:31.583Z,102451.03
2018-02-25T05:23:57.743Z,102447.84
2018-02-25T05:26:23.969Z,102450.42
2018-02-25T05:28:50.175Z,102456.81
2018-02-25T05:31:16.403Z,102458.78
2018-02-25T05:33:42.538Z,102463.00
2018-02-25T05:36:08.778Z,102465.84
2018-02-25T05:38:34.950Z,102460.13
2018-02-25T05:41:01.102Z,102469.09
2018-02-25T05:43:27.307Z,102465.79
2018-02-25T05:45:53.507Z,102457.28
2018-02-25T05:48:19.666Z,102467.84
2018-02-25T05:50:45.815Z,102469.91
2018-02-25T05:53:12.613Z,102458.31
2018-02-25T05:55:38.829Z,102459.48
2018-02-25T05:58:05.042Z,102465.83
2018-02-25T06:00:31.196Z,102468.30
2018-02-25T06:02:57.450Z,102473.77
2018-02-25T06:05:23.608Z,102467.33
2018-02-25T06:07:50.016Z,102477.47
2018-02-25T06:10:16.208Z,102485.82
2018-02-25T06:12:42.429Z,102481.08
2018-02-25T06:15:08.627Z,102481.08
2018-02-25T06:17:34.824Z,102477.42
2018-02-25T06:20:01.011Z,102484.58
2018-02-25T06:22:27.482Z,102492.15
2018-02-25T06:24:53.684Z,102498.48
2018-02-25T06:27:19.909Z,102496.26
2018-02-25T06:29:46.099Z,102495.08
2018-02-25T06:32:12.338Z,102504.50
2018-02-25T06:34:38.549Z,102514.86
2018-02-25T06:37:04.758Z,102512.55
2018-02-25T06:39:30.929Z,102511.66
2018-02-25T06:41:57.147Z,102514.84
2018-02-25T06:44:23.346Z,102519.48
2018-02-25T06:46:50.453Z,102518.97
2018-02-25T06:49:16.593Z,102531.59
2018-02-25T06:51:42.742Z,102535.34
2018-02-25T06:54:08.901Z,102539.78
2018-02-25T06:56:35.122Z,102550.39
2018-02-25T06:59:01.287Z,102549.63
2018-02-25T07:01:27.508Z,102557.19
2018-02-25T07:03:53.687Z,102549.34
2018-02-25T07:06:19.867Z,102558.47
2018-02-25T07:08:46.076Z,102552.09
2018-02-25T07:11:12.241Z,102558.64
2018-02-25T07:13:38.404Z,102554.37
2018-02-25T07:16:04.622Z,102558.02
2018-02-25T07:18:30.840Z,102553.35
2018-02-25T07:20:57.047Z,102557.17
2018-02-25T07:23:23.830Z,102556.97
2018-02-25T07:25:50.003Z,102556.41
2018-02-25T07:28:16.210Z,102555.76
2018-02-25T07:30:42.384Z,102555.25
2018-02-25T07:33:08.687Z,102551.64
2018-02-25T07:35:34.856Z,102551.50
2018-02-25T07:38:01.044Z,102551.34
2018-02-25T07:40:27.262Z,102550.08
2018-02-25T07:42:53.430Z,102539.34
2018-02-25T07:45:19.608Z,102544.15
2018-02-25T07:47:45.865Z,102550.50
2018-02-25T07:50:12.030Z,102553.59
2018-02-25T07:52:38.164Z,102548.80
2018-02-25T07:55:04.354Z,102542.62
2018-02-25T07:57:30.576Z,102551.48
2018-02-25T07:59:56.736Z,102552.36
2018-02-25T08:02:22.951Z,102551.73
2018-02-25T08:04:49.088Z,102557.15
2018-02-25T08:07:15.353Z,102556.15
2018-02-25T08:09:41.511Z,102565.02
2018-02-25T08:12:07.760Z,102555.56
2018-02-25T08:14:33.989Z,102554.27
2018-02-25T08:17:00.187Z,102575.80
2018-02-25T08:19:26.373Z,102572.94
2018-02-25T08:21:52.558Z,102581.55
2018-02-25T08:27:22.388Z,102583.14
2018-02-25T08:29:49.554Z,102571.52
2018-02-25T08:32:16.710Z,102586.48
2018-02-25T08:37:41.765Z,102597.62
2018-02-25T08:40:29.052Z,102592.17
2018-02-25T08:45:59.699Z,102599.48
2018-02-25T08:48:25.941Z,102601.58
2018-02-25T08:50:52.390Z,102612.90
2018-02-25T08:53:22.996Z,102611.81
2018-02-25T08:55:50.048Z,102609.57
2018-02-25T08:58:16.285Z,102605.69
2018-02-25T09:00:42.478Z,102602.54
2018-02-25T09:03:08.711Z,102614.34
2018-02-25T09:05:34.966Z,102614.27
2018-02-25T09:08:01.184Z,102609.77
2018-02-25T09:10:28.193Z,102608.36
2018-02-25T09:12:54.377Z,102610.33
2018-02-25T09:15:20.515Z,102610.21
2018-02-25T09:17:46.733Z,102615.69
2018-02-25T09:20:13.014Z,102632.77
2018-02-25T09:22:39.185Z,102623.56
2018-02-25T09:25:05.408Z,102629.94
2018-02-25T09:27:31.660Z,102622.34
2018-02-25T09:29:57.789Z,102628.47
2018-02-25T09:32:24.006Z,102625.05
2018-02-25T09:34:50.160Z,102627.80
2018-02-25T09:37:16.402Z,102625.01
2018-02-25T09:39:42.600Z,102628.47
2018-02-25T09:42:08.774Z,102622.64
2018-02-25T09:44:35.014Z,102612.67
2018-02-25T09:47:01.381Z,102618.87
2018-02-25T09:49:27.580Z,102616.24
2018-02-25T09:51:53.758Z,102600.27
2018-02-25T09:54:20.161Z,102620.70
2018-02-25T09:56:46.344Z,102622.55
2018-02-25T09:59:12.536Z,102617.31
2018-02-25T10:01:38.716Z,102641.05
2018-02-25T10:04:05.224Z,102625.31
2018-02-25T10:06:31.416Z,102628.27
2018-02-25T10:08:57.617Z,102629.38
2018-02-25T10:11:23.774Z,102632.84
2018-02-25T10:13:49.900Z,102628.39
2018-02-25T10:16:16.188Z,102627.05
2018-02-25T10:18:42.345Z,102628.92
2018-02-25T10:21:08.512Z,102630.48
2018-02-25T10:23:34.644Z,102630.09
2018-02-25T10:26:07.883Z,102619.78
2018-02-25T10:28:34.119Z,102613.26
2018-02-25T10:31:00.503Z,102610.95
2018-02-25T10:33:26.951Z,102610.28
2018-02-25T10:35:53.234Z,102610.25
2018-02-25T10:38:19.400Z,102607.16
2018-02-25T10:40:45.550Z,102607.11
2018-02-25T10:43:12.000Z,102601.05
2018-02-25T10:45:38.229Z,102606.64
2018-02-25T10:48:04.507Z,102607.58
2018-02-25T10:50:30.679Z,102611.09
2018-02-25T10:52:56.877Z,102610.76
2018-02-25T10:55:23.138Z,102606.95
2018-02-25T10:57:49.509Z,102612.68
2018-02-25T11:00:21.880Z,102607.56
2018-02-25T11:02:48.069Z,102610.48
2018-02-25T11:05:14.295Z,102604.42
2018-02-25T11:07:40.520Z,102601.33
2018-02-25T11:10:06.941Z,102607.99
2018-02-25T11:12:33.090Z,102613.52
2018-02-25T11:14:59.262Z,102609.67
2018-02-25T11:17:25.478Z,102604.81
2018-02-25T11:19:51.672Z,102607.49
2018-02-25T11:22:17.829Z,102614.56
2018-02-25T11:24:43.993Z,102615.73
2018-02-25T11:27:10.217Z,102609.13
2018-02-25T11:29:36.419Z,102615.16
2018-02-25T11:32:02.628Z,102616.58
2018-02-25T11:34:28.868Z,102622.31
2018-02-25T11:36:55.637Z,102616.41
2018-02-25T11:39:21.824Z,102607.08
2018-02-25T11:41:48.039Z,102609.58
2018-02-25T11:44:15.182Z,102617.55
2018-02-25T11:46:41.314Z,102607.50
2018-02-25T11:49:07.412Z,102613.36
2018-02-25T11:51:33.643Z,102602.06
2018-02-25T11:53:59.908Z,102610.47
2018-02-25T11:56:26.118Z,102608.83
2018-02-25T11:58:52.357Z,102598.93
2018-02-25T12:01:18.599Z,102602.22
2018-02-25T12:03:44.753Z,102602.84
2018-02-25T12:06:10.935Z,102603.05
2018-02-25T12:08:37.145Z,102588.09
2018-02-25T12:11:03.397Z,102588.78
2018-02-25T12:13:29.563Z,102587.41
2018-02-25T12:15:55.719Z,102583.63
2018-02-25T12:18:22.559Z,102584.80
2018-02-25T12:20:48.824Z,102582.67
2018-02-25T12:23:14.961Z,102573.08
2018-02-25T12:25:42.190Z,102582.11
2018-02-25T12:28:08.383Z,102588.55
2018-02-25T12:30:34.612Z,102586.77
2018-02-25T12:33:00.889Z,102586.15
2018-02-25T12:35:27.172Z,102583.43
2018-02-25T12:37:53.395Z,102577.14
2018-02-25T12:40:19.654Z,102573.61
2018-02-25T12:42:45.856Z,102569.59
2018-02-25T12:45:12.055Z,102568.34
2018-02-25T12:47:38.269Z,102573.34
2018-02-25T12:50:04.511Z,102578.20
2018-02-25T12:52:30.690Z,102571.06
2018-02-25T12:54:56.849Z,102569.75
2018-02-25T12:57:23.081Z,102574.44
2018-02-25T12:59:49.309Z,102561.94
2018-02-25T13:02:15.510Z,102565.41
2018-02-25T13:04:41.706Z,102570.66
2018-02-25T13:07:07.934Z,102571.53
2018-02-25T13:09:34.154Z,102574.02
2018-02-25T13:12:00.397Z,102574.82
2018-02-25T13:14:26.574Z,102574.09
2018-02-25T13:16:52.723Z,102567.70
2018-02-25T13:19:19.036Z,102568.70
2018-02-25T13:21:45.438Z,102559.84
2018-02-25T13:24:11.605Z,102563.80
2018-02-25T13:26:37.832Z,102560.97
2018-02-25T13:29:04.025Z,102554.59
2018-02-25T13:31:30.273Z,102552.55
2018-02-25T13:33:56.481Z,102553.77
2018-02-25T13:36:22.714Z,102549.92
2018-02-25T13:38:48.971Z,102563.61
2018-02-25T13:41:15.239Z,102550.45
2018-02-25T13:43:41.512Z,102554.80
2018-02-25T13:46:07.674Z,102547.81
2018-02-25T13:48:33.922Z,102544.86
2018-02-25T13:51:00.158Z,102539.50
2018-02-25T13:53:26.326Z,102535.09
2018-02-25T13:55:52.543Z,102531.49
2018-02-25T13:58:18.698Z,102537.67
2018-02-25T14:00:44.892Z,102540.02
2018-02-25T14:03:11.081Z,102538.02
2018-02-25T14:05:38.304Z,102542.05
2018-02-25T14:08:04.513Z,102532.80
2018-02-25T14:10:30.795Z,102534.95
2018-02-25T14:12:56.987Z,102536.88
2018-02-25T14:15:23.196Z,102536.94
2018-02-25T14:17:49.341Z,102531.41
2018-02-25T14:20:15.557Z,102538.52
2018-02-25T14:22:41.781Z,102551.16
2018-02-25T14:25:07.992Z,102539.94
2018-02-25T14:27:34.176Z,102537.04
2018-02-25T14:30:00.394Z,102544.61
2018-02-25T14:32:26.745Z,102540.33
2018-02-25T14:34:52.947Z,102546.41
2018-02-25T14:37:19.313Z,102545.98
2018-02-25T14:39:45.466Z,102541.95
2018-02-25T14:42:11.744Z,102542.70
2018-02-25T14:44:39.154Z,102543.43
2018-02-25T14:47:05.449Z,102545.56
2018-02-25T14:49:31.646Z,102543.81
2018-02-25T14:51:57.891Z,102543.20
2018-02-25T14:54:24.049Z,102541.80
2018-02-25T14:56:50.280Z,102541.56
2018-02-25T14:59:16.431Z,102540.38
2018-02-25T15:01:42.640Z,102535.05
2018-02-25T15:04:08.774Z,102535.14
2018-02-25T15:06:34.975Z,102536.22
2018-02-25T15:09:01.191Z,102541.11
2018-02-25T15:11:27.434Z,102530.14
2018-02-25T15:13:53.713Z,102544.73
2018-02-25T15:16:19.951Z,102541.97
2018-02-25T15:18:46.137Z,102539.29
2018-02-25T15:21:12.350Z,102539.72
2018-02-25T15:23:38.562Z,102537.75
2018-02-25T15:26:04.808Z,102552.76
2018-02-25T15:28:31.015Z,102544.29
2018-02-25T15:30:57.244Z,102539.89
2018-02-25T15:33:23.479Z,102543.44
2018-02-25T15:35:49.705Z,102545.88
2018-02-25T15:38:15.883Z,102555.95
2018-02-25T15:40:42.154Z,102549.48
2018-02-25T15:43:08.343Z,102548.61
2018-02-25T15:45:34.597Z,102547.93
2018-02-25T15:48:00.820Z,102547.63
2018-02-25T15:50:27.030Z,102543.42
2018-02-25T15:52:53.217Z,102543.72
2018-02-25T15:55:19.436Z,102541.62
2018-02-25T15:57:45.641Z,102549.63
2018-02-25T16:00:11.840Z,102531.25
2018-02-25T16:02:38.071Z,102543.09
2018-02-25T16:05:04.215Z,102538.16
2018-02-25T16:07:30.448Z,102539.18
2018-02-25T16:09:56.606Z,102530.38
2018-02-25T16:12:22.818Z,102530.08
2018-02-25T16:14:48.997Z,102530.08
2018-02-25T16:17:15.149Z,102536.83
2018-02-25T16:19:41.287Z,102537.92
2018-02-25T16:22:07.506Z,102547.96
2018-02-25T16:24:33.637Z,102541.87
2018-02-25T16:26:59.866Z,102543.72
2018-02-25T16:29:26.065Z,102544.52
2018-02-25T16:31:52.270Z,102547.16
2018-02-25T16:34:18.507Z,102548.38
2018-02-25T16:36:44.701Z,102548.21
2018-02-25T16:39:10.844Z,102556.87
2018-02-25T16:41:37.055Z,102553.23
2018-02-25T16:44:03.255Z,102554.94
2018-02-25T16:46:29.424Z,102557.23
2018-02-25T16:48:55.653Z,102557.52
2018-02-25T16:51:21.899Z,102561.99
2018-02-25T16:53:48.152Z,102559.89
2018-02-25T16:56:14.394Z,102562.13
2018-02-25T16:58:40.703Z,102551.72
2018-02-25T17:01:06.958Z,102561.28
2018-02-25T17:03:33.110Z,102561.03
2018-02-25T17:05:59.237Z,102564.23
2018-02-25T17:08:25.513Z,102569.91
2018-02-25T17:10:51.743Z,102565.02
2018-02-25T17:13:17.934Z,102571.83
2018-02-25T17:15:44.136Z,102567.12
2018-02-25T17:18:10.372Z,102569.86
2018-02-25T17:20:36.702Z,102569.50
2018-02-25T17:23:02.930Z,102576.03
2018-02-25T17:25:29.148Z,102572.90
2018-02-25T17:27:55.447Z,102572.90
2018-02-25T17:30:21.683Z,102567.81
2018-02-25T17:32:47.905Z,102576.19
2018-02-25T17:35:14.133Z,102581.15
2018-02-25T17:37:40.398Z,102578.92
2018-02-25T17:40:06.627Z,102575.52
2018-02-25T17:42:32.862Z,102590.45
2018-02-25T17:44:59.092Z,102588.83
2018-02-25T17:47:25.309Z,102589.33
2018-02-25T17:49:51.517Z,102600.70
2018-02-25T17:52:17.736Z,102602.66
2018-02-25T17:54:43.959Z,102601.22
2018-02-25T17:57:10.182Z,102604.45
2018-02-25T17:59:36.392Z,102601.39
2018-02-25T18:02:02.616Z,102602.92
2018-02-25T18:04:28.801Z,102591.64
2018-02-25T18:06:54.940Z,102591.78
2018-02-25T18:09:21.088Z,102595.89
2018-02-25T18:11:47.324Z,102590.25
2018-02-25T18:14:13.606Z,102600.09
2018-02-25T18:16:39.833Z,102591.86
2018-02-25T18:19:06.066Z,102590.02
2018-02-25T18:21:32.310Z,102592.89
2018-02-25T18:23:58.495Z,102599.31
2018-02-25T18:26:24.764Z,102606.47
2018-02-25T18:28:51.023Z,102602.25
2018-02-25T18:31:17.258Z,102607.47
2018-02-25T18:33:43.408Z,102605.72
2018-02-25T18:36:09.592Z,102602.66
2018-02-25T18:38:35.824Z,102601.05
2018-02-25T18:41:02.070Z,102606.54
2018-02-25T18:43:28.219Z,102600.77
2018-02-25T18:45:54.388Z,102607.49
2018-02-25T18:48:20.576Z,102603.19
2018-02-25T18:50:46.801Z,102600.23
2018-02-25T18:53:13.048Z,102602.91
2018-02-25T18:55:39.289Z,102589.07
2018-02-25T18:58:05.531Z,102593.16
2018-02-25T19:00:31.716Z,102594.55
2018-02-25T19:02:58.009Z,102598.44
2018-02-25T19:05:24.258Z,102600.00
2018-02-25T19:07:50.490Z,102598.24
2018-02-25T19:10:16.722Z,102608.08
2018-02-25T19:12:42.960Z,102605.03
2018-02-25T19:15:09.693Z,102606.33
2018-02-25T19:17:35.942Z,102617.68
2018-02-25T19:20:02.097Z,102617.78
2018-02-25T19:22:28.358Z,102611.31
2018-02-25T19:24:54.535Z,102623.05
2018-02-25T19:27:20.773Z,102632.64
2018-02-25T19:29:47.024Z,102626.55
2018-02-25T19:32:13.226Z,102624.98
2018-02-25T19:34:39.410Z,102621.69
2018-02-25T19:37:11.656Z,102633.98
2018-02-25T19:39:43.806Z,102635.22
2018-02-25T19:42:10.973Z,102626.68
2018-02-25T19:44:37.210Z,102631.85
2018-02-25T19:47:03.369Z,102635.12
2018-02-25T19:49:29.586Z,102644.13
2018-02-25T19:51:55.866Z,102650.59
2018-02-25T19:54:22.118Z,102636.45
2018-02-25T19:56:48.353Z,102644.89
2018-02-25T19:59:14.555Z,102647.64
2018-02-25T20:01:40.771Z,102641.70
2018-02-25T20:04:06.958Z,102646.06
2018-02-25T20:06:33.138Z,102646.88
2018-02-25T20:08:59.332Z,102657.34
2018-02-25T20:11:25.594Z,102658.95
2018-02-25T20:13:51.769Z,102652.77
2018-02-25T20:16:17.954Z,102663.10
2018-02-25T20:18:44.274Z,102657.42
2018-02-25T20:21:10.462Z,102648.05
2018-02-25T20:23:36.699Z,102663.15
2018-02-25T20:26:02.945Z,102659.48
2018-02-25T20:28:29.121Z,102663.69
2018-02-25T20:30:55.271Z,102669.74
2018-02-25T20:33:21.489Z,102673.77
2018-02-25T20:35:47.653Z,102678.05
2018-02-25T20:38:13.865Z,102683.22
2018-02-25T20:40:40.061Z,102678.17
2018-02-25T20:43:06.302Z,102673.69
2018-02-25T20:45:32.470Z,102671.98
2018-02-25T20:47:58.708Z,102673.33
2018-02-25T20:50:25.502Z,102667.34
2018-02-25T20:52:51.730Z,102668.49
2018-02-25T20:55:17.887Z,102660.84
2018-02-25T20:57:44.204Z,102660.34
2018-02-25T21:00:10.442Z,102658.84
2018-02-25T21:02:36.706Z,102660.08
2018-02-25T21:05:02.936Z,102671.88
2018-02-25T21:07:29.084Z,102669.14
2018-02-25T21:09:55.308Z,102674.09
2018-02-25T21:12:21.561Z,102673.53
2018-02-25T21:14:47.701Z,102674.73
2018-02-25T21:17:13.893Z,102672.73
2018-02-25T21:19:40.038Z,102675.27
2018-02-25T21:22:06.234Z,102673.81
2018-02-25T21:24:32.386Z,102674.68
2018-02-25T21:26:58.606Z,102680.17
2018-02-25T21:29:24.808Z,102680.42
2018-02-25T21:31:51.033Z,102673.72
2018-02-25T21:34:17.177Z,102680.13
2018-02-25T21:36:43.399Z,102680.78
2018-02-25T21:39:09.581Z,102689.25
2018-02-25T21:41:35.751Z,102683.47
2018-02-25T21:44:01.951Z,102686.38
2018-02-25T21:46:28.067Z,102693.19
2018-02-25T21:48:54.240Z,102683.38
2018-02-25T21:51:20.479Z,102692.81
2018-02-25T21:53:46.705Z,102691.47
2018-02-25T21:56:19.102Z,102690.86
2018-02-25T21:58:51.359Z,102698.09
2018-02-25T22:01:23.482Z,102691.98
2018-02-25T22:03:55.922Z,102692.36
2018-02-25T22:06:22.076Z,102688.17
2018-02-25T22:08:48.284Z,102691.77
2018-02-25T22:11:14.464Z,102697.25
2018-02-25T22:13:40.709Z,102691.98
2018-02-25T22:16:06.842Z,102687.23
2018-02-25T22:18:33.063Z,102690.19
2018-02-25T22:20:59.246Z,102693.12
2018-02-25T22:23:25.472Z,102689.70
2018-02-25T22:25:51.648Z,102699.00
2018-02-25T22:28:17.852Z,102697.39
2018-02-25T22:30:44.024Z,102695.97
2018-02-25T22:33:10.208Z,102695.97
2018-02-25T22:35:36.396Z,102690.23
2018-02-25T22:38:02.567Z,102691.11
2018-02-25T22:40:28.673Z,102694.92
2018-02-25T22:42:54.922Z,102694.56
2018-02-25T22:45:21.197Z,102701.91
2018-02-25T22:47:47.352Z,102694.05
2018-02-25T22:50:13.506Z,102694.94
2018-02-25T22:52:39.713Z,102696.23
2018-02-25T22:55:05.875Z,102701.91
2018-02-25T22:57:32.062Z,102701.18
2018-02-25T22:59:58.217Z,102702.01
2018-02-25T23:02:24.496Z,102689.05
2018-02-25T23:04:50.623Z,102697.47
2018-02-25T23:07:16.799Z,102701.02
2018-02-25T23:09:42.940Z,102707.58
2018-02-25T23:12:09.166Z,102704.06
2018-02-25T23:14:35.369Z,102705.67
2018-02-25T23:17:01.534Z,102713.87
2018-02-25T23:19:27.693Z,102704.27
2018-02-25T23:21:53.880Z,102711.13
2018-02-25T23:24:20.056Z,102710.92
2018-02-25T23:26:46.257Z,102715.77
2018-02-25T23:29:12.446Z,102713.49
2018-02-25T23:31:38.584Z,102714.52
2018-02-25T23:34:04.774Z,102717.36
2018-02-25T23:36:30.944Z,102717.25
2018-02-25T23:38:57.079Z,102720.96
2018-02-25T23:41:23.275Z,102718.16
2018-02-25T23:43:49.468Z,102727.51
2018-02-25T23:46:15.634Z,102729.09
2018-02-25T23:48:41.801Z,102737.96
2018-02-25T23:51:08.235Z,102729.70
2018-02-25T23:53:34.427Z,102732.07
2018-02-25T23:56:00.643Z,102723.55
2018-02-25T23:58:26.760Z,102733.41
